Time,TemperatureF,DewpointF,PressureIn,WindDirection,WindDirectionDegrees,WindSpeedMPH,WindSpeedGustMPH,Humidity,HourlyPrecipIn,Conditions,Clouds,dailyrainin,SoftwareType,DateUTC
2013-06-27 00:00:00,65.6,64.7,30.00,East,84,0.0,2.0,97,0.00,RA,,0.00,WeatherDisplay:10.37,2013-06-27 04:00:00,
2013-06-27 00:15:00,65.7,64.8,30.00,East,84,0.0,1.0,97,0.00,SCT,,0.00,WeatherDisplay:10.37,2013-06-27 04:15:00,
2013-06-27 00:30:00,65.6,64.7,30.00,East,84,0.0,2.0,97,0.00,SCT,,0.00,WeatherDisplay:10.37,2013-06-27 04:30:00,
2013-06-27 00:45:00,65.7,64.8,29.99,East,93,0.0,2.0,97,0.00,SCT,,0.00,WeatherDisplay:10.37,2013-06-27 04:45:00,
2013-06-27 01:00:00,65.7,64.8,29.98,East,93,0.0,2.0,97,0.00,SCT,,0.00,WeatherDisplay:10.37,2013-06-27 05:00:00,
2013-06-27 01:15:00,65.5,64.6,29.98,East,93,0.0,2.0,97,0.00,SCT,,0.00,WeatherDisplay:10.37,2013-06-27 05:15:00,
2013-06-27 01:30:00,65.3,64.1,29.97,East,93,0.0,1.0,96,0.00,BKN,,0.00,WeatherDisplay:10.37,2013-06-27 05:30:00,
2013-06-27 01:45:00,65.2,64.3,29.97,East,93,0.0,3.0,97,0.00,BKN,,0.00,WeatherDisplay:10.37,2013-06-27 05:45:00,
2013-06-27 02:00:00,65.2,64.3,29.96,East,93,0.0,3.0,97,0.00,BKN,,0.00,WeatherDisplay:10.37,2013-06-27 06:00:00,
2013-06-27 02:15:00,65.1,64.2,29.96,East,94,0.0,0.0,97,0.00,BKN,,0.00,WeatherDisplay:10.37,2013-06-27 06:15:00,
2013-06-27 02:30:00,65.2,64.3,29.95,East,94,0.0,0.0,97,0.00,FEW,,0.00,WeatherDisplay:10.37,2013-06-27 06:30:00,
2013-06-27 02:45:00,65.6,64.7,29.94,East,93,0.0,0.0,97,0.00,FEW,,0.00,WeatherDisplay:10.37,2013-06-27 06:45:00,
2013-06-27 03:00:00,65.9,65.0,29.94,East,93,0.0,0.0,97,0.00,OVC,,0.00,WeatherDisplay:10.37,2013-06-27 07:00:00,
2013-06-27 03:15:00,66.1,65.2,29.92,East,93,0.0,0.0,97,0.00,OVC,,0.00,WeatherDisplay:10.37,2013-06-27 07:15:00,
2013-06-27 03:30:00,66.2,65.3,29.92,East,93,0.0,0.0,97,0.00,OVC,,0.00,WeatherDisplay:10.37,2013-06-27 07:30:00,
2013-06-27 03:45:00,66.2,65.3,29.91,East,94,0.0,2.0,97,0.00,OVC,,0.00,WeatherDisplay:10.37,2013-06-27 07:45:00,
2013-06-27 04:00:00,66.2,65.3,29.91,East,93,0.0,1.0,97,0.00,OVC,,0.00,WeatherDisplay:10.37,2013-06-27 08:00:00,
2013-06-27 04:15:00,66.4,65.6,29.91,East,94,0.0,2.0,97,0.00,OVC,,0.00,WeatherDisplay:10.37,2013-06-27 08:15:00,
2013-06-27 04:30:00,66.9,66.3,29.91,East,94,0.0,1.0,98,0.00,OVC,,0.00,WeatherDisplay:10.37,2013-06-27 08:30:00,
2013-06-27 04:45:00,67.3,66.7,29.90,East,94,1.0,2.0,98,0.00,OVC,,0.00,WeatherDisplay:10.37,2013-06-27 08:45:00,
2013-06-27 05:00:00,67.6,67.0,29.89,ESE,103,1.0,3.0,98,0.00,OVC,,0.00,WeatherDisplay:10.37,2013-06-27 09:00:00,
2013-06-27 05:15:00,67.9,67.0,29.89,SSE,166,0.0,3.0,97,0.00,OVC,,0.00,WeatherDisplay:10.37,2013-06-27 09:15:00,
2013-06-27 05:30:00,68.2,67.6,29.90,SSE,167,1.0,4.0,98,0.00,OVC,,0.00,WeatherDisplay:10.37,2013-06-27 09:30:00,
2013-06-27 05:45:00,68.3,67.7,29.90,South,169,0.0,3.0,98,0.00,OVC,,0.00,WeatherDisplay:10.37,2013-06-27 09:45:00,
2013-06-27 06:00:00,68.4,67.9,29.90,SSE,158,1.0,4.0,98,0.00,OVC,,0.00,WeatherDisplay:10.37,2013-06-27 10:00:00,
2013-06-27 06:15:00,68.5,67.9,29.88,SSE,154,0.0,2.0,98,0.00,OVC,,0.00,WeatherDisplay:10.37,2013-06-27 10:15:00,
2013-06-27 06:30:00,68.8,68.2,29.88,SSE,162,0.0,5.0,98,0.00,OVC,,0.00,WeatherDisplay:10.37,2013-06-27 10:30:00,
2013-06-27 06:45:00,69.2,68.7,29.87,SSW,211,0.0,5.0,98,0.00,OVC,,0.00,WeatherDisplay:10.37,2013-06-27 10:45:00,
2013-06-27 07:00:00,69.8,69.2,29.86,South,185,1.0,7.0,98,0.00,OVC,,0.00,WeatherDisplay:10.37,2013-06-27 11:00:00,
2013-06-27 07:15:00,70.5,69.9,29.87,SW,222,1.0,6.0,98,0.00,OVC,,0.00,WeatherDisplay:10.37,2013-06-27 11:15:00,
2013-06-27 07:30:00,71.0,70.4,29.87,SSW,204,1.0,6.0,98,0.00,OVC,,0.00,WeatherDisplay:10.37,2013-06-27 11:30:00,
2013-06-27 07:45:00,71.1,70.5,29.88,WSW,250,0.0,6.0,98,0.00,OVC,,0.00,WeatherDisplay:10.37,2013-06-27 11:45:00,
2013-06-27 08:00:00,71.4,70.8,29.89,West,268,1.0,7.0,98,0.00,OVC,,0.00,WeatherDisplay:10.37,2013-06-27 12:00:00,
2013-06-27 08:15:00,71.6,71.0,29.89,SW,224,0.0,6.0,98,0.00,OVC,,0.00,WeatherDisplay:10.37,2013-06-27 12:15:00,
2013-06-27 08:30:00,71.5,70.9,29.90,SW,227,1.0,6.0,98,0.00,OVC,,0.00,WeatherDisplay:10.37,2013-06-27 12:30:00,
2013-06-27 08:45:00,72.7,72.1,29.90,SW,233,3.0,8.0,98,0.00,OVC,,0.00,WeatherDisplay:10.37,2013-06-27 12:45:00,
2013-06-27 09:00:00,71.9,71.3,29.89,SW,218,1.0,12.0,98,0.00,SCT,,0.00,WeatherDisplay:10.37,2013-06-27 13:00:00,
2013-06-27 09:15:00,73.0,72.4,29.89,SW,229,3.0,12.0,98,0.00,SCT,,0.00,WeatherDisplay:10.37,2013-06-27 13:15:00,
2013-06-27 09:30:00,73.7,72.5,29.90,SW,227,1.0,8.0,96,0.00,FEW,,0.00,WeatherDisplay:10.37,2013-06-27 13:30:00,
2013-06-27 09:45:00,73.4,71.2,29.90,SSW,213,2.0,7.0,93,0.00,FEW,,0.00,WeatherDisplay:10.37,2013-06-27 13:45:00,
2013-06-27 10:00:00,73.2,70.4,29.89,SW,233,2.0,8.0,91,0.00,FEW,,0.00,WeatherDisplay:10.37,2013-06-27 14:00:00,
2013-06-27 10:15:00,74.4,71.6,29.88,SSW,212,3.0,6.0,91,0.00,FEW,,0.00,WeatherDisplay:10.37,2013-06-27 14:15:00,
2013-06-27 10:30:00,75.7,71.9,29.88,SW,215,1.0,8.0,88,0.00,FEW,,0.00,WeatherDisplay:10.37,2013-06-27 14:30:00,
2013-06-27 10:45:00,77.7,71.4,29.89,WSW,248,1.0,9.0,81,0.00,FEW,,0.00,WeatherDisplay:10.37,2013-06-27 14:45:00,
2013-06-27 11:00:00,79.6,71.8,29.89,SW,225,1.0,8.0,77,0.00,FEW,,0.00,WeatherDisplay:10.37,2013-06-27 15:00:00,
2013-06-27 11:15:00,79.4,70.7,29.88,West,280,2.0,6.0,75,0.00,FEW,,0.00,WeatherDisplay:10.37,2013-06-27 15:15:00,
2013-06-27 11:30:00,79.0,70.8,29.89,West,274,0.0,4.0,76,0.00,BKN,,0.00,WeatherDisplay:10.37,2013-06-27 15:30:00,
2013-06-27 11:45:00,79.1,71.6,29.89,WSW,257,1.0,4.0,78,0.00,BKN,,0.00,WeatherDisplay:10.37,2013-06-27 15:45:00,
2013-06-27 12:00:00,79.5,71.3,29.89,SW,217,5.0,8.0,76,0.00,BKN,,0.00,WeatherDisplay:10.37,2013-06-27 16:00:00,
2013-06-27 12:15:00,80.0,71.0,29.89,WSW,248,2.0,6.0,74,0.00,BKN,,0.00,WeatherDisplay:10.37,2013-06-27 16:15:00,
2013-06-27 12:30:00,80.7,71.6,29.89,SSW,198,2.0,9.0,74,0.00,SCT,,0.00,WeatherDisplay:10.37,2013-06-27 16:30:00,
2013-06-27 12:45:00,80.1,70.6,29.88,SSW,210,1.0,8.0,73,0.00,SCT,,0.00,WeatherDisplay:10.37,2013-06-27 16:45:00,
2013-06-27 13:00:00,79.7,71.9,29.87,SW,227,1.0,5.0,77,0.00,SCT,,0.00,WeatherDisplay:10.37,2013-06-27 17:00:00,
2013-06-27 13:15:00,79.9,71.3,29.87,SW,222,3.0,7.0,75,0.00,SCT,,0.00,WeatherDisplay:10.37,2013-06-27 17:15:00,
2013-06-27 13:30:00,81.4,73.1,29.87,SW,231,6.0,12.0,76,0.00,CLR,,0.00,WeatherDisplay:10.37,2013-06-27 17:30:00,
2013-06-27 13:45:00,81.9,74.0,29.87,SW,222,2.0,12.0,77,0.00,CLR,,0.00,WeatherDisplay:10.37,2013-06-27 17:45:00,
2013-06-27 14:00:00,82.9,74.1,29.86,SW,223,2.0,12.0,75,0.00,CLR,,0.00,WeatherDisplay:10.37,2013-06-27 18:00:00,
2013-06-27 14:15:00,83.5,73.1,29.86,WSW,237,2.0,12.0,71,0.00,CLR,,0.00,WeatherDisplay:10.37,2013-06-27 18:15:00,
2013-06-27 14:30:00,84.3,73.9,29.86,WSW,238,5.0,8.0,71,0.00,CLR,,0.00,WeatherDisplay:10.37,2013-06-27 18:30:00,
2013-06-27 14:45:00,85.2,74.7,29.85,SW,218,3.0,10.0,71,0.00,CLR,,0.00,WeatherDisplay:10.37,2013-06-27 18:45:00,
2013-06-27 15:00:00,86.1,74.7,29.84,WSW,241,2.0,10.0,69,0.00,CLR,,0.00,WeatherDisplay:10.37,2013-06-27 19:00:00,
2013-06-27 15:15:00,86.4,74.6,29.84,SW,221,3.0,9.0,68,0.00,CLR,,0.00,WeatherDisplay:10.37,2013-06-27 19:15:00,
2013-06-27 15:30:00,86.1,73.9,29.83,SSW,197,1.0,14.0,67,0.00,FEW,,0.00,WeatherDisplay:10.37,2013-06-27 19:30:00,
2013-06-27 15:45:00,84.4,74.0,29.82,WSW,237,3.0,8.0,71,0.00,FEW,,0.00,WeatherDisplay:10.37,2013-06-27 19:45:00,
2013-06-27 16:00:00,84.0,74.0,29.81,West,280,3.0,9.0,72,0.00,FEW,,0.00,WeatherDisplay:10.37,2013-06-27 20:00:00,
2013-06-27 16:15:00,84.1,73.2,29.81,West,261,1.0,12.0,70,0.00,FEW,,0.00,WeatherDisplay:10.37,2013-06-27 20:15:00,
2013-06-27 16:30:00,83.8,74.2,29.81,SW,217,3.0,10.0,73,0.00,BKN,,0.00,WeatherDisplay:10.37,2013-06-27 20:30:00,
2013-06-27 16:45:00,84.0,73.6,29.80,SW,231,3.0,7.0,71,0.00,BKN,,0.00,WeatherDisplay:10.37,2013-06-27 20:45:00,
2013-06-27 17:00:00,83.9,73.9,29.80,WSW,250,2.0,12.0,72,0.00,BKN,,0.00,WeatherDisplay:10.37,2013-06-27 21:00:00,
2013-06-27 17:15:00,83.6,73.6,29.79,SSW,203,3.0,9.0,72,0.00,BKN,,0.00,WeatherDisplay:10.37,2013-06-27 21:15:00,
2013-06-27 17:30:00,84.0,73.6,29.79,SW,226,2.0,12.0,71,0.00,FEW,,0.00,WeatherDisplay:10.37,2013-06-27 21:30:00,
2013-06-27 18:00:00,84.5,74.5,29.78,SW,214,3.0,7.0,72,0.00,FEW,,0.00,WeatherDisplay:10.37,2013-06-27 22:00:00,
2013-06-27 18:15:00,84.5,74.1,29.78,SW,225,2.0,9.0,71,0.00,FEW,,0.00,WeatherDisplay:10.37,2013-06-27 22:15:00,
2013-06-27 18:30:00,84.3,73.8,29.78,West,266,2.0,10.0,71,0.00,OVC,,0.00,WeatherDisplay:10.37,2013-06-27 22:30:00,
2013-06-27 18:45:00,83.8,74.2,29.78,WSW,254,1.0,5.0,73,0.00,OVC,,0.00,WeatherDisplay:10.37,2013-06-27 22:45:00,
2013-06-27 19:00:00,84.0,74.8,29.78,SW,218,2.0,5.0,74,0.00,OVC,,0.00,WeatherDisplay:10.37,2013-06-27 23:00:00,
2013-06-27 19:15:00,83.8,74.2,29.78,SW,215,3.0,6.0,73,0.00,OVC,,0.00,WeatherDisplay:10.37,2013-06-27 23:15:00,
2013-06-27 19:30:00,83.3,74.1,29.78,SSW,212,1.0,6.0,74,0.00,CLR,,0.00,WeatherDisplay:10.37,2013-06-27 23:30:00,
2013-06-27 19:45:00,83.3,74.5,29.78,SSW,212,0.0,3.0,75,0.00,CLR,,0.00,WeatherDisplay:10.37,2013-06-27 23:45:00,
2013-06-27 20:00:00,83.5,74.7,29.79,SSW,212,0.0,2.0,75,0.00,CLR,,0.00,WeatherDisplay:10.37,2013-06-28 00:00:00,
2013-06-27 20:15:00,82.9,74.9,29.80,SSW,212,0.0,2.0,77,0.00,CLR,,0.00,WeatherDisplay:10.37,2013-06-28 00:15:00,
2013-06-27 20:30:00,82.1,74.6,29.80,SSW,212,0.0,2.0,78,0.00,CLR,,0.00,WeatherDisplay:10.37,2013-06-28 00:30:00,
2013-06-27 20:45:00,80.9,73.4,29.81,SSW,206,1.0,5.0,78,0.00,CLR,,0.00,WeatherDisplay:10.37,2013-06-28 00:45:00,
2013-06-27 21:00:00,79.0,71.9,29.82,South,178,1.0,6.0,79,0.00,CLR,,0.00,WeatherDisplay:10.37,2013-06-28 01:00:00,
2013-06-27 21:15:00,77.8,71.5,29.81,SSE,166,0.0,3.0,81,0.00,CLR,,0.00,WeatherDisplay:10.37,2013-06-28 01:15:00,
2013-06-27 21:30:00,77.0,71.1,29.81,SSE,166,1.0,2.0,82,0.00,CLR,,0.00,WeatherDisplay:10.37,2013-06-28 01:30:00,
2013-06-27 21:45:00,76.2,71.0,29.82,South,181,1.0,4.0,84,0.00,CLR,,0.00,WeatherDisplay:10.37,2013-06-28 01:45:00,
2013-06-27 22:00:00,75.5,70.7,29.82,SSW,210,0.0,2.0,85,0.00,CLR,,0.00,WeatherDisplay:10.37,2013-06-28 02:00:00,
2013-06-27 22:15:00,74.8,70.7,29.83,SW,214,0.0,4.0,87,0.00,CLR,,0.00,WeatherDisplay:10.37,2013-06-28 02:15:00,
2013-06-27 22:30:00,74.4,70.6,29.82,SSW,213,0.0,3.0,88,0.00,CLR,,0.00,WeatherDisplay:10.37,2013-06-28 02:30:00,
2013-06-27 22:45:00,74.0,70.2,29.82,SSW,213,0.0,2.0,88,0.00,CLR,,0.00,WeatherDisplay:10.37,2013-06-28 02:45:00,
2013-06-27 23:00:00,73.5,70.1,29.82,SSW,213,0.0,3.0,89,0.00,CLR,,0.00,WeatherDisplay:10.37,2013-06-28 03:00:00,
2013-06-27 23:15:00,73.1,70.3,29.83,SSW,213,0.0,2.0,91,0.00,CLR,,0.00,WeatherDisplay:10.37,2013-06-28 03:15:00,
2013-06-27 23:30:00,72.7,70.3,29.83,SSW,213,0.0,3.0,92,0.00,BKN,,0.00,WeatherDisplay:10.37,2013-06-28 03:30:00,
2013-06-27 23:44:00,72.6,70.4,29.82,SW,214,0.0,3.0,93,0.00,BKN,,0.00,WeatherDisplay:10.37,2013-06-28 03:44:00,